To NAV CANADA Home Page Login to a new session Search on AWWS site Disclaimer Vers la page française équivalente Tips FAQ What's new on the site To the Forecasts and Observations / NOTAM section To "File a Flight Plan" website Publications and other links Update of the User's profile FIC Telephone Numbers My Weather Data Folder Route Weather Data Regional Weather Data Local Weather Data To the Forecasts and Observations / NOTAM section
Request Generated 06/14/2021 at 19:13:50 UTC . Weather information available at that time is displayed.

METAR/TAF

If you find any discrepancies between the coded METAR/TAF and the plain language METAR/TAF please use the coded METAR/TAF. LWIS bulletins are not decoded in plain language.

TORONTO/LESTER B. PEARSON INTL/ON    

METAR CYYZ 141900Z 03009KT 15SM VCSH SCT055CB BKN100 BKN260 23/13 A2974 RMK CB4 2CI1 CB E-SE MOVG S SLP072 DENSITY ALT 1900FT=
METAR
LOCATION
CYYZ - TORONTO/LESTER B. PEARSON INTL/ON
DATE - TIME
14 JUNE 2021 - 1900 UTC
WIND
30 TRUE @ 9  KNOTS
VISIBILITY
15 STAT.  MILES
RUNWAY VISUAL RANGE
WEATHER
IN THE VICINITY
SHOWER
CLOUDINESS
SCATTERED CLOUDS (3/8 - 4/8) 5500  FT
CUMULONIMBUS
BROKEN CLOUDS (5/8 - 7/8) 10000  FT
BROKEN CLOUDS (5/8 - 7/8) 26000  FT
TEMP / DEWPOINT
23 C / 13 C
ALTIMETER
29.74 IN HG
RECENT WEATHER
WIND SHEAR

METAR CYYZ 141800Z 26012KT 15SM BKN044 24/13 A2976 RMK CU7 SLP078 DENSITY ALT 2 0FT=
METAR
LOCATION
CYYZ - TORONTO/LESTER B. PEARSON INTL/ON
DATE - TIME
14 JUNE 2021 - 1800 UTC
WIND
260 TRUE @ 12  KNOTS
VISIBILITY
15 STAT.  MILES
RUNWAY VISUAL RANGE
WEATHER
CLOUDINESS
BROKEN CLOUDS (5/8 - 7/8) 4400  FT
TEMP / DEWPOINT
24 C / 13 C
ALTIMETER
29.76 IN HG
RECENT WEATHER
WIND SHEAR

METAR CYYZ 141700Z 27008G16KT 200V310 15SM BKN035 BKN230 23/13 A2978 RMK CU6CI1 I TR SLP086 DENSITY ALT 1900FT=
METAR
LOCATION
CYYZ - TORONTO/LESTER B. PEARSON INTL/ON
DATE - TIME
14 JUNE 2021 - 1700 UTC
WIND
270 TRUE @ 8  KNOTS
VARIATION
200 <-> 310  DEG
GUSTS
16 KNOTS
VISIBILITY
15 STAT.  MILES
RUNWAY VISUAL RANGE
WEATHER
CLOUDINESS
BROKEN CLOUDS (5/8 - 7/8) 3500  FT
BROKEN CLOUDS (5/8 - 7/8) 23000  FT
TEMP / DEWPOINT
23 C / 13 C
ALTIMETER
29.78 IN HG
RECENT WEATHER
WIND SHEAR

TAF AMD CYYZ 141854Z 1418/1524 26012KT P6SM -SHRA BKN030 TEMPO 1418/1423 3SM -SHRA BR PROB40 1418/1423 2SM +TSRA BR OVC030CB FM142300 34012KT P6SM -SHRA BKN030 TEMPO 1423/1501 P6SM -SHRA VCTS BKN030CB FM150100 35010KT P6SM BKN040 FM150500 35010KT 5SM -SHRA BR SCT008 OVC020 FM151500 35012G22KT P6SM BKN040 FM151700 34015G25KT P6SM FEW050 RMK NXT FCST BY 142100Z=
AMENDED TAF
LOCATION

CYYZ - TORONTO/LESTER B. PEARSON INTL/ON
VALIDITY [UTC]
14 JUN - 1854 to
16 JUN - 0000
 
TIMES
[UTC]
WIND
[DEGREES TRUE]
VISIBILITY
[STAT. MILES]
WEATHER
CLOUDINESS
[FEET AGL]
 
14 JUN - 1800 to
14 JUN - 2300
260 @ 12 KNOTS
6+
LIGHT RAIN SHOWER
3000 BROKEN
TEMPORARY CHANGES
14 JUN - 1800 to
14 JUN - 2300
 
3
LIGHT RAIN SHOWER
MIST
 
40% PROBABILITY
14 JUN - 1800 to
14 JUN - 2300
 
2
HEAVY THUNDERSTORM WITH RAIN
MIST
3000 OVERCAST WITH CUMULONIMBUS
 
14 JUN - 2300 to
15 JUN - 0100
340 @ 12 KNOTS
6+
LIGHT RAIN SHOWER
3000 BROKEN
TEMPORARY CHANGES
14 JUN - 2300 to
15 JUN - 0100
 
6+
LIGHT RAIN SHOWER
SPRAY IN THE VICINITY
3000 BROKEN WITH CUMULONIMBUS
 
15 JUN - 0100 to
15 JUN - 0500
350 @ 10 KNOTS
6+
NIL
4000 BROKEN
 
15 JUN - 0500 to
15 JUN - 1500
350 @ 10 KNOTS
5
LIGHT RAIN SHOWER
MIST
800 SCATTERED
2000 OVERCAST
 
15 JUN - 1500 to
15 JUN - 1700
350 @ 12 KNOTS
GUSTS 22 KNOTS
6+
NIL
4000 BROKEN
 
15 JUN - 1700 to
16 JUN - 0000
340 @ 15 KNOTS
GUSTS 25 KNOTS
6+
NIL
5000 FEW
REMARKS
THE NEXT FORECAST WILL BE ISSUED BY 2100 UTC ON DAY 14


Your time UTC time
Weather data provided by Environment Canada and NAV CANADA